York, PA (17406)

1:44 AM EDT on August 04, 2015 (GMT -0400)
Hallam Borough | | Change Station
CLOSE
Current Station
Personal Weather Station
Location: Hallam, PA
Elevation: 381 ft
Nearby Weather Stations

Elev 381 ft 40.00 °N, 76.60 °W | Updated 1 minute ago

Mostly Cloudy
Mostly Cloudy
70.2 °F
Feels Like 70.2 °F
N
0.0
Wind Variable Wind from West

Today
High -- | Low -- °F
--% Chance of Precip.
Yesterday
High -- | Low -- °F
Precip. -- in
6:07 AM 8:17 PM
Waning Gibbous, 81% visible
Pressure 29.83 in
Visibility 10.0 miles
Clouds Few 8000 ft
Dew Point 65 °F
Humidity 85%
Rainfall 0.00 in
Snow Depth Not available.
UV 0 out of 12
Pollen 6.60 out of 12
Air Quality Not available.
Flu Activity Not available.
METAR KTHV 040453Z AUTO 20004KT 10SM FEW080 22/18 A2983 RMK AO2 LTG DSNT E AND SE TSE21 SLP100 T02220183 403060167

More Conditions Fewer Conditions

Pressure 29.83 in
Visibility 10.0 miles
Clouds Few 8000 ft
Dew Point 65 °F
Humidity 85%
Rainfall 0.00 in
Snow Depth Not available.
UV 0 out of 12
Pollen 6.60 out of 12
Air Quality Not available.
Flu Activity Not available.
METAR KTHV 040453Z AUTO 20004KT 10SM FEW080 22/18 A2983 RMK AO2 LTG DSNT E AND SE TSE21 SLP100 T02220183 403060167

More Conditions Fewer Conditions

Nowcast | as of 1:16 am EDT on August 4, 2015

Scattered showers and thunderstorms will continue to affect parts of the region through 3 am. Some of the stronger storms will produce brief wind gusts greater than 3o mph...heavy downpours and hail. Storms are moving east around 40 mph.

×

10-Day Weather Forecast

×

Almanac

Astronomy

Aug. 04, 2015 Rise Set
Actual Time
Civil Twilight
Nautical Twilight
Astronomical Twilight
Moon
Length of Visible Light
Length of Day
Tomorrow will be .
, % of the Moon is Illuminated

Today's Extremes

State Highs State Lows

Community

WunderPhotos

Upload Photos

1,843,870 photos uploaded!

WunderBlogs® & News

Nearby

Air Quality

  Air Quality AQ Index Pollutant
Not available.

Snow Depth

Station Depth Elevation

Earthquake Activity

City Distance Mag. Time & Date
Minimum magnitude displayed is 2.5.

Coastal Water Temperatures

Place Temperature

Stations

Nearby Weather Stations

Station Location Temp. Windchill Dew Point Humidity Wind Precip. Elev Updated Type